createdAt,value
2022-08-22T00:02:23.602Z,67.77
2022-08-22T00:02:42.671Z,58.39
2022-08-22T00:02:52.694Z,54.50
2022-08-22T00:05:17.253Z,68.45
2022-08-22T00:07:45.250Z,66.76
2022-08-22T00:10:28.111Z,66.63
2022-08-22T00:13:20.634Z,65.92
2022-08-22T00:16:16.704Z,68.30
2022-08-22T00:19:16.203Z,68.08
2022-08-22T00:22:15.391Z,68.81
2022-08-22T00:24:59.261Z,69.03
2022-08-22T00:27:38.449Z,65.68
2022-08-22T00:30:17.822Z,67.00
2022-08-22T00:33:01.853Z,68.91
2022-08-22T00:35:53.694Z,67.82
2022-08-22T00:38:35.417Z,69.46
2022-08-22T00:41:44.972Z,70.52
2022-08-22T00:44:58.254Z,65.49
2022-08-22T00:48:10.172Z,66.86
2022-08-22T00:51:01.327Z,66.54
2022-08-22T00:53:42.890Z,67.25
2022-08-22T00:56:47.485Z,66.23
2022-08-22T00:59:29.609Z,64.44
2022-08-22T01:02:24.314Z,66.91
2022-08-22T01:05:10.299Z,68.25
2022-08-22T01:08:29.706Z,67.33
2022-08-22T01:11:30.275Z,66.20
2022-08-22T01:14:34.326Z,66.63
2022-08-22T01:17:29.536Z,67.68
2022-08-22T01:20:27.191Z,66.25
2022-08-22T01:23:18.685Z,68.55
2022-08-22T01:26:06.759Z,65.72
2022-08-22T01:29:28.299Z,66.65
2022-08-22T01:32:56.975Z,68.39
2022-08-22T01:36:10.117Z,66.91
2022-08-22T01:39:02.140Z,66.28
2022-08-22T01:41:59.433Z,67.73
2022-08-22T01:44:32.353Z,67.64
2022-08-22T01:47:01.485Z,67.61
2022-08-22T01:49:44.124Z,68.56
2022-08-22T01:53:02.797Z,65.10
2022-08-22T01:55:42.307Z,66.61
2022-08-22T01:58:32.026Z,69.10
2022-08-22T02:01:10.986Z,69.39
2022-08-22T02:03:51.367Z,67.97
2022-08-22T02:06:33.812Z,67.93
2022-08-22T02:09:28.110Z,71.48
2022-08-22T02:12:22.140Z,69.01
2022-08-22T02:15:21.694Z,73.06
2022-08-22T02:18:06.412Z,69.62
2022-08-22T02:20:48.912Z,71.56
2022-08-22T02:23:49.846Z,70.60
2022-08-22T02:27:04.378Z,70.66
2022-08-22T02:29:50.558Z,71.35
2022-08-22T02:32:48.947Z,70.87
2022-08-22T02:35:40.246Z,70.57
2022-08-22T02:38:52.954Z,70.20
2022-08-22T02:42:07.203Z,71.16
2022-08-22T02:44:50.567Z,72.16
2022-08-22T02:47:35.590Z,71.78
2022-08-22T02:50:39.470Z,72.80
2022-08-22T02:53:49.841Z,71.75
2022-08-22T02:57:06.077Z,72.86
2022-08-22T02:59:38.249Z,73.94
2022-08-22T03:02:46.373Z,72.17
2022-08-22T03:05:37.253Z,73.57
2022-08-22T03:08:28.255Z,72.82
2022-08-22T03:11:23.562Z,73.44
2022-08-22T03:14:55.012Z,70.61
2022-08-22T03:17:38.425Z,71.02
2022-08-22T03:20:13.947Z,74.21
2022-08-22T03:23:05.379Z,71.51
2022-08-22T03:25:38.527Z,70.84
2022-08-22T03:28:37.288Z,70.47
2022-08-22T03:31:18.624Z,74.32
2022-08-22T03:34:06.419Z,72.17
2022-08-22T03:36:35.524Z,71.03
2022-08-22T03:39:35.487Z,72.62
2022-08-22T03:43:14.364Z,71.73
2022-08-22T03:46:30.507Z,71.41
2022-08-22T03:49:10.415Z,74.25
2022-08-22T03:51:56.204Z,74.10
2022-08-22T03:54:58.551Z,72.97
2022-08-22T03:57:37.632Z,74.40
2022-08-22T04:00:57.462Z,76.23
2022-08-22T04:03:56.908Z,76.07
2022-08-22T04:07:06.886Z,74.02
2022-08-22T04:10:07.355Z,70.46
2022-08-22T04:12:52.515Z,70.13
2022-08-22T04:15:40.528Z,73.72
2022-08-22T04:18:23.624Z,74.59
2022-08-22T04:20:56.704Z,72.02
2022-08-22T04:23:57.656Z,69.18
2022-08-22T04:26:56.525Z,68.19
2022-08-22T04:30:05.834Z,73.82
2022-08-22T04:32:50.196Z,74.26
2022-08-22T04:35:29.534Z,73.74
2022-08-22T04:38:12.510Z,74.83
2022-08-22T04:40:53.678Z,73.14
2022-08-22T04:43:39.264Z,73.72
2022-08-22T04:46:41.674Z,74.59
2022-08-22T04:49:39.913Z,72.98
2022-08-22T04:52:18.979Z,70.21
2022-08-22T04:55:11.101Z,69.63
2022-08-22T04:57:56.049Z,71.84
2022-08-22T05:00:23.933Z,70.40
2022-08-22T05:02:56.420Z,71.15
2022-08-22T05:05:38.573Z,72.60
2022-08-22T05:08:09.976Z,68.59
2022-08-22T05:10:47.495Z,62.11
2022-08-22T05:13:22.844Z,60.33
2022-08-22T05:15:56.332Z,58.84
2022-08-22T05:18:42.756Z,60.02
2022-08-22T05:21:13.900Z,60.71
2022-08-22T05:24:04.616Z,60.45
2022-08-22T05:26:40.591Z,55.30
2022-08-22T05:29:10.002Z,53.69
2022-08-22T05:32:03.550Z,55.61
2022-08-22T05:34:40.148Z,53.19
2022-08-22T05:37:22.744Z,52.65
2022-08-22T05:39:58.961Z,51.05
2022-08-22T05:42:33.954Z,52.01
2022-08-22T05:45:03.371Z,53.00
2022-08-22T05:47:55.630Z,54.86
2022-08-22T05:50:52.200Z,52.27
2022-08-22T05:53:37.595Z,51.70
2022-08-22T05:56:18.194Z,47.98
2022-08-22T05:58:51.772Z,47.63
2022-08-22T06:01:38.081Z,46.34
2022-08-22T06:04:31.185Z,47.90
2022-08-22T06:07:14.905Z,55.19
2022-08-22T06:09:48.108Z,55.68
2022-08-22T06:12:44.673Z,55.63
2022-08-22T06:15:20.914Z,58.76
2022-08-22T06:18:05.210Z,59.09
2022-08-22T06:21:01.093Z,58.03
2022-08-22T06:24:02.598Z,55.84
2022-08-22T06:26:36.459Z,56.02
2022-08-22T06:29:07.514Z,55.42
2022-08-22T06:31:48.371Z,56.47
2022-08-22T06:34:25.685Z,56.39
2022-08-22T06:36:56.282Z,58.06
2022-08-22T06:39:42.235Z,56.20
2022-08-22T06:42:23.950Z,57.15
2022-08-22T06:45:09.548Z,56.50
2022-08-22T06:47:50.238Z,56.19
2022-08-22T06:50:35.805Z,56.79
2022-08-22T06:53:29.447Z,55.89
2022-08-22T06:56:03.164Z,56.86
2022-08-22T06:58:52.453Z,55.63
2022-08-22T07:01:39.936Z,55.48
2022-08-22T07:04:10.511Z,55.89
2022-08-22T07:06:50.244Z,54.67
2022-08-22T07:09:25.717Z,53.77
2022-08-22T07:11:56.366Z,53.89
2022-08-22T07:14:44.337Z,53.82
2022-08-22T07:17:28.701Z,53.18
2022-08-22T07:20:24.073Z,55.12
2022-08-22T07:23:08.880Z,53.06
2022-08-22T07:25:55.317Z,53.53
2022-08-22T07:28:51.241Z,52.87
2022-08-22T07:31:54.142Z,53.01
2022-08-22T07:34:38.055Z,53.23
2022-08-22T07:37:21.788Z,52.89
2022-08-22T07:40:00.726Z,53.19
2022-08-22T07:42:49.510Z,53.80
2022-08-22T07:45:32.021Z,53.39
2022-08-22T07:48:26.573Z,53.68
2022-08-22T07:51:01.047Z,53.28
2022-08-22T07:54:00.989Z,53.01
2022-08-22T07:56:38.447Z,53.21
2022-08-22T07:59:20.083Z,53.46
2022-08-22T08:01:53.528Z,53.23
2022-08-22T08:04:39.472Z,54.01
2022-08-22T08:07:14.479Z,53.64
2022-08-22T08:09:49.911Z,53.59
2022-08-22T08:12:22.149Z,52.74
2022-08-22T08:14:53.355Z,52.93
2022-08-22T08:17:32.190Z,53.11
2022-08-22T08:20:08.854Z,52.13
2022-08-22T08:22:38.976Z,51.97
2022-08-22T08:25:08.198Z,51.82
2022-08-22T08:27:57.346Z,50.36
2022-08-22T08:30:40.841Z,50.76
2022-08-22T08:33:26.182Z,47.99
2022-08-22T08:36:25.521Z,45.71
2022-08-22T08:39:28.572Z,47.06
2022-08-22T08:43:11.080Z,47.28
2022-08-22T08:46:14.458Z,47.71
2022-08-22T08:49:06.497Z,48.34
2022-08-22T08:52:18.355Z,47.34
2022-08-22T08:55:42.755Z,46.54
2022-08-22T08:59:01.941Z,46.19
2022-08-22T09:01:56.593Z,47.57
2022-08-22T09:05:20.921Z,47.18
2022-08-22T09:08:27.623Z,47.18
2022-08-22T09:11:31.213Z,47.30
2022-08-22T09:14:53.217Z,46.40
2022-08-22T09:18:08.469Z,44.76
2022-08-22T09:21:30.436Z,45.43
2022-08-22T09:24:40.246Z,46.53
2022-08-22T09:27:36.657Z,45.15
2022-08-22T09:30:13.067Z,45.95
2022-08-22T09:33:08.885Z,44.51
2022-08-22T09:36:03.148Z,45.63
2022-08-22T09:38:38.128Z,46.44
2022-08-22T09:41:54.339Z,42.82
2022-08-22T09:44:46.564Z,43.65
2022-08-22T09:47:39.272Z,42.97
2022-08-22T09:50:30.800Z,42.61
2022-08-22T09:53:34.518Z,43.11
2022-08-22T09:56:26.153Z,42.40
2022-08-22T09:59:06.794Z,41.62
2022-08-22T10:02:14.276Z,41.73
2022-08-22T10:05:05.886Z,41.73
2022-08-22T10:08:12.919Z,40.76
2022-08-22T10:11:11.773Z,41.51
2022-08-22T10:14:02.629Z,42.80
2022-08-22T10:17:14.814Z,41.67
2022-08-22T10:20:02.071Z,41.36
2022-08-22T10:22:49.422Z,42.29
2022-08-22T10:25:16.351Z,41.93
2022-08-22T10:28:22.156Z,40.27
2022-08-22T10:31:08.026Z,40.69
2022-08-22T10:33:59.482Z,41.21
2022-08-22T10:37:02.007Z,40.92
2022-08-22T10:40:02.528Z,41.43
2022-08-22T10:43:13.434Z,41.12
2022-08-22T10:45:46.338Z,41.39
2022-08-22T10:48:35.139Z,40.55
2022-08-22T10:51:24.846Z,42.57
2022-08-22T10:54:26.462Z,41.50
2022-08-22T10:57:12.210Z,41.37
2022-08-22T10:59:56.663Z,41.60
2022-08-22T11:02:53.075Z,43.18
2022-08-22T11:05:37.837Z,40.00
2022-08-22T11:08:25.495Z,40.06
2022-08-22T11:11:43.837Z,41.08
2022-08-22T11:14:24.742Z,41.38
2022-08-22T11:17:27.515Z,41.33
2022-08-22T11:20:32.096Z,41.92
2022-08-22T11:23:34.025Z,41.84
2022-08-22T11:26:35.845Z,41.96
2022-08-22T11:29:26.459Z,42.65
2022-08-22T11:32:30.783Z,41.45
2022-08-22T11:35:14.231Z,41.62
2022-08-22T11:38:32.583Z,42.57
2022-08-22T11:41:52.481Z,41.81
2022-08-22T11:44:50.970Z,41.24
2022-08-22T11:47:28.054Z,41.57
2022-08-22T11:50:19.248Z,43.00
2022-08-22T11:53:07.850Z,41.35
2022-08-22T11:56:21.339Z,43.18
2022-08-22T11:59:22.517Z,41.07
2022-08-22T12:01:59.789Z,42.02
2022-08-22T12:04:43.976Z,41.22
2022-08-22T12:07:18.598Z,40.21
2022-08-22T12:09:50.624Z,40.60
2022-08-22T12:12:42.187Z,39.21
2022-08-22T12:15:53.752Z,38.73
2022-08-22T12:18:26.853Z,39.01
2022-08-22T12:21:21.540Z,38.98
2022-08-22T12:23:55.681Z,38.39
2022-08-22T12:27:10.040Z,38.94
2022-08-22T12:31:00.816Z,39.17
2022-08-22T12:34:02.180Z,39.51
2022-08-22T12:37:03.023Z,39.93
2022-08-22T12:40:17.596Z,39.07
2022-08-22T12:43:10.251Z,39.06
2022-08-22T12:46:12.838Z,39.24
2022-08-22T12:49:21.263Z,37.59
2022-08-22T12:52:12.912Z,38.85
2022-08-22T12:54:58.343Z,36.81
2022-08-22T12:58:01.001Z,37.32
2022-08-22T13:00:45.178Z,35.58
2022-08-22T13:03:34.595Z,35.87
2022-08-22T13:06:42.611Z,35.66
2022-08-22T13:09:30.867Z,35.33
2022-08-22T13:12:25.492Z,35.80
2022-08-22T13:15:11.990Z,35.99
2022-08-22T13:17:44.727Z,38.00
2022-08-22T13:20:32.662Z,35.49
2022-08-22T13:23:12.420Z,36.03
2022-08-22T13:26:16.460Z,35.66
2022-08-22T13:29:26.755Z,36.12
2022-08-22T13:32:03.598Z,35.36
2022-08-22T13:34:45.666Z,36.22
2022-08-22T13:37:24.781Z,36.96
2022-08-22T13:40:00.985Z,36.33
2022-08-22T13:42:33.701Z,36.41
2022-08-22T13:45:27.017Z,36.26
2022-08-22T13:48:09.310Z,35.56
2022-08-22T13:51:14.471Z,35.51
2022-08-22T13:54:01.969Z,34.88
2022-08-22T13:56:47.839Z,34.84
2022-08-22T14:00:07.984Z,35.62
2022-08-22T14:02:58.843Z,36.37
2022-08-22T14:05:54.753Z,36.11
2022-08-22T14:08:41.332Z,36.21
2022-08-22T14:11:55.192Z,36.08
2022-08-22T14:14:34.447Z,35.44
2022-08-22T14:17:02.288Z,35.50
2022-08-22T14:19:53.123Z,36.15
2022-08-22T14:22:31.799Z,35.22
2022-08-22T14:25:24.724Z,34.73
2022-08-22T14:28:06.442Z,35.29
2022-08-22T14:31:00.967Z,35.70
2022-08-22T14:33:40.872Z,35.51
2022-08-22T14:36:17.142Z,35.00
2022-08-22T14:38:57.869Z,35.57
2022-08-22T14:41:52.501Z,35.02
2022-08-22T14:44:36.239Z,35.77
2022-08-22T14:47:32.362Z,35.43
2022-08-22T14:50:45.734Z,36.17
2022-08-22T14:53:23.651Z,34.64
2022-08-22T14:56:13.257Z,36.23
2022-08-22T14:59:07.152Z,35.47
2022-08-22T15:02:07.545Z,35.39
2022-08-22T15:04:49.935Z,35.86
2022-08-22T15:07:32.992Z,34.59
2022-08-22T15:10:25.253Z,35.20
2022-08-22T15:12:59.145Z,35.89
2022-08-22T15:15:54.172Z,33.69
2022-08-22T15:18:28.064Z,34.39
2022-08-22T15:21:21.010Z,35.41
2022-08-22T15:23:55.931Z,33.81
2022-08-22T15:26:36.621Z,34.48
2022-08-22T15:29:23.597Z,34.67
2022-08-22T15:31:59.755Z,34.45
2022-08-22T15:34:32.668Z,34.01
2022-08-22T15:37:17.943Z,34.14
2022-08-22T15:40:11.872Z,35.14
2022-08-22T15:42:50.256Z,35.12
2022-08-22T15:45:30.649Z,35.01
2022-08-22T15:48:04.819Z,33.58
2022-08-22T15:50:41.835Z,33.35
2022-08-22T15:53:14.160Z,34.04
2022-08-22T15:56:13.223Z,34.27
2022-08-22T15:58:50.061Z,34.07
2022-08-22T16:01:25.055Z,33.66
2022-08-22T16:04:12.810Z,35.23
2022-08-22T16:06:53.948Z,35.19
2022-08-22T16:09:53.096Z,35.90
2022-08-22T16:12:44.212Z,36.50
2022-08-22T16:15:54.159Z,36.26
2022-08-22T16:18:39.647Z,36.18
2022-08-22T16:21:14.609Z,34.41
2022-08-22T16:24:00.908Z,34.21
2022-08-22T16:26:30.925Z,33.68
2022-08-22T16:29:07.246Z,35.14
2022-08-22T16:31:38.901Z,35.72
2022-08-22T16:34:18.109Z,34.57
2022-08-22T16:37:03.428Z,34.50
2022-08-22T16:39:49.771Z,35.38
2022-08-22T16:42:22.898Z,34.69
2022-08-22T16:45:05.118Z,34.60
2022-08-22T16:47:32.874Z,35.23
2022-08-22T16:50:27.923Z,34.70
2022-08-22T16:53:08.466Z,34.84
2022-08-22T16:55:36.052Z,35.66
2022-08-22T16:58:17.500Z,34.70
2022-08-22T17:01:08.884Z,35.16
2022-08-22T17:03:54.116Z,36.89
2022-08-22T17:07:03.323Z,35.48
2022-08-22T17:10:14.286Z,34.58
2022-08-22T17:13:12.908Z,34.61
2022-08-22T17:16:17.058Z,35.07
2022-08-22T17:19:25.839Z,35.20
2022-08-22T17:22:11.105Z,35.30
2022-08-22T17:25:21.735Z,34.26
2022-08-22T17:28:34.287Z,36.82
2022-08-22T17:31:43.810Z,35.49
2022-08-22T17:34:35.204Z,35.54
2022-08-22T17:37:23.412Z,35.17
2022-08-22T17:40:22.774Z,35.55
2022-08-22T17:43:27.100Z,35.12
2022-08-22T17:46:29.774Z,34.93
2022-08-22T17:49:11.297Z,35.82
2022-08-22T17:52:13.554Z,35.02
2022-08-22T17:54:50.620Z,35.33
2022-08-22T17:57:48.987Z,35.72
2022-08-22T18:00:37.121Z,36.35
2022-08-22T18:03:29.284Z,36.45
2022-08-22T18:06:19.911Z,37.57
2022-08-22T18:09:15.430Z,38.52
2022-08-22T18:12:02.067Z,39.55
2022-08-22T18:14:47.596Z,40.64
2022-08-22T18:17:33.651Z,41.26
2022-08-22T18:20:17.361Z,42.05
2022-08-22T18:23:21.549Z,42.04
2022-08-22T18:26:44.128Z,46.05
2022-08-22T18:29:18.016Z,44.71
2022-08-22T18:32:19.154Z,45.69
2022-08-22T18:35:05.951Z,48.42
2022-08-22T18:37:34.864Z,50.45
2022-08-22T18:40:50.325Z,49.68
2022-08-22T18:43:48.336Z,45.98
2022-08-22T18:46:38.566Z,46.44
2022-08-22T18:49:31.739Z,47.23
2022-08-22T18:52:19.865Z,46.03
2022-08-22T18:55:27.827Z,46.11
2022-08-22T18:58:24.793Z,46.99
2022-08-22T19:01:31.087Z,47.23
2022-08-22T19:04:40.279Z,46.90
2022-08-22T19:07:57.187Z,48.54
2022-08-22T19:10:40.768Z,48.65
2022-08-22T19:13:34.552Z,47.73
2022-08-22T19:16:26.681Z,47.55
2022-08-22T19:19:02.693Z,49.54
2022-08-22T19:21:54.459Z,48.87
2022-08-22T19:24:27.430Z,49.58
2022-08-22T19:27:07.421Z,52.81
2022-08-22T19:29:34.268Z,51.53
2022-08-22T19:32:05.929Z,53.60
2022-08-22T19:34:39.821Z,52.56
2022-08-22T19:37:33.360Z,52.67
2022-08-22T19:40:10.569Z,53.16
2022-08-22T19:42:43.201Z,52.87
2022-08-22T19:45:28.714Z,52.52
2022-08-22T19:48:13.968Z,52.39
2022-08-22T19:50:43.217Z,52.36
2022-08-22T19:53:46.735Z,52.26
2022-08-22T19:57:01.013Z,52.11
2022-08-22T20:00:00.015Z,54.38
2022-08-22T20:02:39.180Z,52.81
2022-08-22T20:05:35.959Z,52.26
2022-08-22T20:08:27.775Z,52.47
2022-08-22T20:11:52.767Z,52.84
2022-08-22T20:14:31.139Z,53.90
2022-08-22T20:17:10.533Z,54.42
2022-08-22T20:22:45.359Z,56.44
2022-08-22T20:25:49.327Z,56.34
2022-08-22T20:28:48.988Z,54.75
2022-08-22T20:31:27.497Z,57.21
2022-08-22T20:34:21.664Z,59.23
2022-08-22T20:36:59.748Z,57.75
2022-08-22T20:39:58.508Z,56.37
2022-08-22T20:42:30.594Z,56.70
2022-08-22T20:44:59.838Z,56.63
2022-08-22T20:47:32.309Z,55.43
2022-08-22T20:50:12.189Z,56.08
2022-08-22T20:52:51.784Z,56.89
2022-08-22T20:55:27.929Z,57.33
2022-08-22T20:58:18.378Z,55.95
2022-08-22T21:00:48.883Z,57.52
2022-08-22T21:03:44.536Z,58.22
2022-08-22T21:06:28.158Z,59.09
2022-08-22T21:09:40.276Z,60.58
2022-08-22T21:12:09.420Z,64.06
2022-08-22T21:14:46.190Z,65.02
2022-08-22T21:17:27.465Z,61.76
2022-08-22T21:20:14.765Z,57.32
2022-08-22T21:22:42.223Z,58.64
2022-08-22T21:25:09.703Z,60.02
2022-08-22T21:27:37.253Z,58.84
2022-08-22T21:30:09.402Z,60.14
2022-08-22T21:32:42.863Z,61.58
2022-08-22T21:35:32.102Z,58.08
2022-08-22T21:38:01.485Z,57.15
2022-08-22T21:40:36.954Z,55.95
2022-08-22T21:43:14.009Z,55.62
2022-08-22T21:45:44.405Z,56.39
2022-08-22T21:48:40.058Z,57.87
2022-08-22T21:51:36.493Z,58.57
2022-08-22T21:54:25.624Z,58.41
2022-08-22T21:57:00.263Z,58.61
2022-08-22T21:59:51.168Z,62.19
2022-08-22T22:02:42.137Z,61.47
2022-08-22T22:05:17.743Z,61.29
2022-08-22T22:07:47.547Z,60.36
2022-08-22T22:10:19.360Z,59.85
2022-08-22T22:12:49.419Z,60.45
2022-08-22T22:15:22.071Z,58.85
2022-08-22T22:17:49.888Z,60.28
2022-08-22T22:20:19.778Z,59.04
2022-08-22T22:22:47.540Z,58.17
2022-08-22T22:25:39.151Z,59.90
2022-08-22T22:28:15.953Z,60.80
2022-08-22T22:30:45.114Z,63.00
2022-08-22T22:33:12.444Z,62.67
2022-08-22T22:35:40.743Z,61.81
2022-08-22T22:38:08.332Z,61.04
2022-08-22T22:40:36.146Z,60.71
2022-08-22T22:43:03.862Z,61.11
2022-08-22T22:45:31.151Z,61.61
2022-08-22T22:47:58.515Z,60.99
2022-08-22T22:50:25.836Z,60.36
2022-08-22T22:52:54.165Z,60.31
2022-08-22T22:55:24.714Z,60.65
2022-08-22T22:57:59.231Z,61.43
2022-08-22T23:00:31.039Z,63.06
2022-08-22T23:03:00.500Z,62.18
2022-08-22T23:05:32.148Z,61.58
2022-08-22T23:08:00.012Z,59.60
2022-08-22T23:10:30.099Z,60.33
2022-08-22T23:12:57.882Z,61.59
2022-08-22T23:15:25.592Z,63.33
2022-08-22T23:17:52.689Z,63.82
2022-08-22T23:20:20.283Z,62.38
2022-08-22T23:22:47.840Z,62.88
2022-08-22T23:25:15.694Z,62.31
2022-08-22T23:27:43.467Z,61.26
2022-08-22T23:30:11.763Z,60.97
2022-08-22T23:32:39.335Z,62.41
2022-08-22T23:35:07.575Z,60.26
2022-08-22T23:37:35.446Z,60.97
2022-08-22T23:40:07.376Z,60.48
2022-08-22T23:42:34.693Z,60.46
2022-08-22T23:45:01.728Z,60.71
2022-08-22T23:47:28.983Z,60.75
2022-08-22T23:49:56.103Z,60.28
2022-08-22T23:52:23.196Z,60.14
2022-08-22T23:54:51.516Z,61.09
2022-08-22T23:57:26.264Z,59.65
2022-08-22T23:59:57.468Z,60.87
